createdAt,value
2023-04-23T00:07:03.496Z,100
2023-04-23T00:19:28.935Z,100
2023-04-23T00:25:51.578Z,100
2023-04-23T00:31:47.830Z,100
2023-04-23T00:38:01.864Z,100
2023-04-23T00:43:57.471Z,100
2023-04-23T00:50:05.781Z,100
2023-04-23T00:56:01.433Z,100
2023-04-23T01:01:56.156Z,100
2023-04-23T01:08:01.379Z,100
2023-04-23T01:14:07.842Z,100
2023-04-23T01:20:01.469Z,100
2023-04-23T01:25:55.086Z,100
2023-04-23T01:31:51.434Z,100
2023-04-23T01:37:46.435Z,100
2023-04-23T01:43:43.110Z,100
2023-04-23T01:49:47.822Z,100
2023-04-23T01:56:02.833Z,100
2023-04-23T02:02:01.752Z,100
2023-04-23T02:08:02.979Z,100
2023-04-23T02:26:44.343Z,100
2023-04-23T02:32:55.947Z,100
2023-04-23T02:39:06.356Z,100
2023-04-23T02:45:04.686Z,100
2023-04-23T02:51:18.022Z,100
2023-04-23T02:57:29.256Z,100
2023-04-23T03:03:28.377Z,100
2023-04-23T03:09:53.049Z,100
2023-04-23T03:23:32.021Z,100
2023-04-23T03:29:25.301Z,100
2023-04-23T03:35:23.462Z,100
2023-04-23T03:41:30.472Z,100
2023-04-23T03:47:30.553Z,100
2023-04-23T03:53:28.185Z,100
2023-04-23T04:06:03.800Z,100
2023-04-23T04:12:20.396Z,100
2023-04-23T04:18:14.144Z,100
2023-04-23T04:24:08.100Z,100
2023-04-23T04:30:17.770Z,100
2023-04-23T04:36:24.038Z,100
2023-04-23T04:42:53.468Z,100
2023-04-23T04:49:19.542Z,100
2023-04-23T05:02:33.633Z,100
2023-04-23T05:15:46.335Z,100
2023-04-23T05:28:56.184Z,100
2023-04-23T05:54:39.906Z,100
2023-04-23T06:01:03.039Z,100
2023-04-23T06:07:08.119Z,99.9
2023-04-23T06:20:20.594Z,98.8
2023-04-23T06:26:56.101Z,98.8
2023-04-23T06:40:19.000Z,97.1
2023-04-23T06:46:26.073Z,97.2
2023-04-23T06:59:26.382Z,97
2023-04-23T09:44:16.326Z,62
2023-04-23T10:27:51.758Z,60.1
2023-04-23T10:45:41.363Z,57.1
2023-04-23T10:58:13.703Z,57.5
2023-04-23T11:04:11.306Z,57.5
2023-04-23T11:10:05.715Z,57.5
2023-04-23T11:15:58.146Z,55.8
2023-04-23T11:21:53.036Z,55.2
2023-04-23T11:27:47.844Z,54.1
2023-04-23T11:33:42.729Z,54.7
2023-04-23T11:39:35.448Z,54.9
2023-04-23T11:45:28.574Z,55.3
2023-04-23T11:51:21.637Z,54.8
2023-04-23T12:03:21.717Z,54.2
2023-04-23T12:09:15.729Z,53.3
2023-04-23T12:15:12.466Z,53.5
2023-04-23T12:21:10.296Z,52.2
2023-04-23T12:27:03.789Z,52.6
2023-04-23T12:32:59.417Z,52.1
2023-04-23T12:38:51.470Z,52.7
2023-04-23T12:44:44.615Z,50.8
2023-04-23T12:50:36.636Z,49.8
2023-04-23T12:56:28.615Z,50.4
2023-04-23T13:02:30.554Z,49.4
2023-04-23T13:08:22.975Z,50.3
2023-04-23T13:14:14.724Z,50.5
2023-04-23T13:20:09.092Z,51.4
2023-04-23T13:26:02.768Z,53
2023-04-23T13:32:08.087Z,53.1
2023-04-23T13:38:06.272Z,54.2
2023-04-23T13:44:02.339Z,54.7
2023-04-23T13:49:55.137Z,56.1
2023-04-23T13:55:53.727Z,56.3
2023-04-23T14:01:45.714Z,56.6
2023-04-23T14:07:38.480Z,56.2
2023-04-23T14:13:33.465Z,55.7
2023-04-23T14:19:31.825Z,56
2023-04-23T14:25:23.812Z,56
2023-04-23T14:31:16.178Z,56.1
2023-04-23T14:43:50.686Z,55.3
2023-04-23T14:49:47.987Z,55.5
2023-04-23T14:55:40.005Z,56
2023-04-23T15:01:33.577Z,55.8
2023-04-23T15:07:30.384Z,56.2
2023-04-23T15:13:23.657Z,57
2023-04-23T15:19:19.471Z,58.7
2023-04-23T15:25:12.746Z,58.5
2023-04-23T15:31:04.490Z,58.3
2023-04-23T15:37:00.870Z,62.3
2023-04-23T15:43:09.027Z,63.8
2023-04-23T15:49:01.627Z,65.6
2023-04-23T15:55:05.440Z,68.4
2023-04-23T16:00:59.226Z,71.7
2023-04-23T16:06:52.245Z,72.4
2023-04-23T16:12:44.538Z,71.5
2023-04-23T16:18:37.988Z,71.9
2023-04-23T16:24:29.894Z,72.2
2023-04-23T16:30:21.687Z,71.9
2023-04-23T16:36:17.430Z,72.8
2023-04-23T16:42:14.332Z,72.7
2023-04-23T16:48:08.246Z,73.1
2023-04-23T16:53:59.261Z,74.5
2023-04-23T16:59:58.101Z,74.8
2023-04-23T17:05:50.905Z,74.8
2023-04-23T17:11:54.309Z,78.3
2023-04-23T17:17:48.787Z,80.1
2023-04-23T17:23:42.481Z,78.8
2023-04-23T17:29:35.456Z,79.1
2023-04-23T17:35:27.751Z,78
2023-04-23T17:41:19.301Z,78.5
2023-04-23T17:47:13.721Z,77.1
2023-04-23T17:53:05.723Z,77.3
2023-04-23T17:59:05.684Z,77.1
2023-04-23T18:04:58.579Z,77.5
2023-04-23T18:10:52.900Z,78
2023-04-23T18:16:44.919Z,78.3
2023-04-23T18:22:36.893Z,78.4
2023-04-23T18:28:29.005Z,79
2023-04-23T18:34:25.723Z,80.3
2023-04-23T18:40:26.917Z,81
2023-04-23T18:46:27.427Z,81.9
2023-04-23T18:52:23.043Z,83.9
2023-04-23T18:58:14.678Z,83.8
2023-04-23T19:04:20.919Z,85
2023-04-23T19:10:16.318Z,89.2
2023-04-23T19:16:11.410Z,89.5
2023-04-23T19:22:20.199Z,88.6
2023-04-23T19:28:14.453Z,88.2
2023-04-23T19:34:10.098Z,87.6
2023-04-23T19:40:02.035Z,85.7
2023-04-23T19:45:56.229Z,84.9
2023-04-23T19:51:49.396Z,84.4
2023-04-23T19:57:42.055Z,83.8
2023-04-23T20:03:32.983Z,85
2023-04-23T20:09:27.784Z,85.4
2023-04-23T20:15:19.386Z,85.3
2023-04-23T20:21:10.414Z,84.1
2023-04-23T20:27:01.450Z,81
2023-04-23T20:32:55.201Z,79.1
2023-04-23T20:38:50.206Z,78.8
2023-04-23T20:44:52.445Z,77.7
2023-04-23T20:50:59.721Z,77.4
2023-04-23T20:56:52.361Z,78.4
2023-04-23T21:02:43.526Z,78.4
2023-04-23T21:08:38.076Z,77.8
2023-04-23T21:14:36.959Z,78.2
2023-04-23T21:20:30.003Z,78.1
2023-04-23T21:26:22.577Z,78.6
2023-04-23T21:32:14.213Z,78.6
2023-04-23T21:38:06.545Z,78.6
2023-04-23T21:43:57.667Z,79.1
2023-04-23T21:49:49.518Z,78.5
2023-04-23T21:55:41.861Z,77.8
2023-04-23T22:01:36.985Z,77.2
2023-04-23T22:07:28.959Z,78.1
2023-04-23T22:13:23.444Z,77.7
2023-04-23T22:19:15.245Z,77.5
2023-04-23T22:25:07.420Z,78
2023-04-23T22:31:02.156Z,78
2023-04-23T22:36:54.050Z,78.1
2023-04-23T22:42:46.529Z,78.6
2023-04-23T22:48:41.475Z,78.9
2023-04-23T22:54:33.812Z,79.1
2023-04-23T23:00:27.189Z,79.9
2023-04-23T23:06:18.844Z,79.5
2023-04-23T23:12:11.222Z,79.6
2023-04-23T23:18:03.096Z,79.2
2023-04-23T23:23:54.691Z,79.7
2023-04-23T23:29:47.204Z,80.2
2023-04-23T23:35:39.074Z,79.7
2023-04-23T23:41:33.105Z,79.6
2023-04-23T23:47:25.741Z,79.7
2023-04-23T23:53:18.330Z,79.7
2023-04-23T23:59:10.229Z,79.4
